createdAt,value
2018-02-20T00:02:19.101Z,21.63
2018-02-20T00:04:46.651Z,21.30
2018-02-20T00:07:14.107Z,23.23
2018-02-20T00:09:41.559Z,21.97
2018-02-20T00:12:09.009Z,22.67
2018-02-20T00:14:37.238Z,21.60
2018-02-20T00:17:04.701Z,21.10
2018-02-20T00:19:32.169Z,21.07
2018-02-20T00:21:59.630Z,22.23
2018-02-20T00:24:27.846Z,22.57
2018-02-20T00:26:55.282Z,21.90
2018-02-20T00:29:22.747Z,21.53
2018-02-20T00:31:50.195Z,22.10
2018-02-20T00:34:17.633Z,21.07
2018-02-20T00:36:45.098Z,20.87
2018-02-20T00:39:12.563Z,20.97
2018-02-20T00:41:40.008Z,20.47
2018-02-20T00:44:07.460Z,21.60
2018-02-20T00:46:35.723Z,21.07
2018-02-20T00:49:03.175Z,23.03
2018-02-20T00:51:30.642Z,22.17
2018-02-20T00:53:58.079Z,21.27
2018-02-20T00:56:25.529Z,22.63
2018-02-20T00:58:52.974Z,21.93
2018-02-20T01:01:20.434Z,23.10
2018-02-20T01:03:47.888Z,22.40
2018-02-20T01:06:15.349Z,23.07
2018-02-20T01:08:43.580Z,22.60
2018-02-20T01:11:11.055Z,22.20
2018-02-20T01:13:38.516Z,22.73
2018-02-20T01:16:05.952Z,22.20
2018-02-20T01:18:33.404Z,22.83
2018-02-20T01:21:00.887Z,22.97
2018-02-20T01:23:28.345Z,22.93
2018-02-20T01:25:55.801Z,22.63
2018-02-20T01:28:23.270Z,23.40
2018-02-20T01:30:50.732Z,22.87
2018-02-20T01:33:18.430Z,23.27
2018-02-20T01:35:45.884Z,21.57
2018-02-20T01:38:13.340Z,20.93
2018-02-20T01:40:40.795Z,22.50
2018-02-20T01:43:08.250Z,21.30
2018-02-20T01:45:35.723Z,22.60
2018-02-20T01:48:03.171Z,21.37
2018-02-20T01:50:30.643Z,21.80
2018-02-20T01:52:58.098Z,21.33
2018-02-20T01:55:25.540Z,19.13
2018-02-20T01:57:53.006Z,20.73
2018-02-20T02:00:20.466Z,20.20
2018-02-20T02:02:47.917Z,20.93
2018-02-20T02:05:16.127Z,21.23
2018-02-20T02:07:43.592Z,20.60
2018-02-20T02:10:11.039Z,20.53
2018-02-20T02:12:38.504Z,21.17
2018-02-20T02:15:06.014Z,21.57
2018-02-20T02:17:33.425Z,21.50
2018-02-20T02:20:00.884Z,20.67
2018-02-20T02:22:28.346Z,21.87
2018-02-20T02:24:55.777Z,20.63
2018-02-20T02:27:23.995Z,22.20
2018-02-20T02:29:51.469Z,20.73
2018-02-20T02:32:18.916Z,20.80
2018-02-20T02:34:46.376Z,22.70
2018-02-20T02:37:13.843Z,22.57
2018-02-20T02:39:41.304Z,22.73
2018-02-20T02:42:08.758Z,23.13
2018-02-20T02:44:36.315Z,22.43
2018-02-20T02:47:04.518Z,23.00
2018-02-20T02:49:31.960Z,25.47
2018-02-20T02:51:59.423Z,24.93
2018-02-20T02:54:26.874Z,22.63
2018-02-20T02:56:55.108Z,23.60
2018-02-20T02:59:22.606Z,25.67
2018-02-20T03:01:50.834Z,24.50
2018-02-20T03:04:18.284Z,24.77
2018-02-20T03:06:45.724Z,23.53
2018-02-20T03:09:13.961Z,24.60
2018-02-20T03:11:41.437Z,23.77
2018-02-20T03:14:08.908Z,23.20
2018-02-20T03:16:36.365Z,23.57
2018-02-20T03:19:03.808Z,25.33
2018-02-20T03:21:31.250Z,26.87
2018-02-20T03:23:58.702Z,24.33
2018-02-20T03:26:26.152Z,26.43
2018-02-20T03:28:53.615Z,25.77
2018-02-20T03:31:21.048Z,25.87
2018-02-20T03:33:48.520Z,23.67
2018-02-20T03:36:16.784Z,25.77
2018-02-20T03:38:44.250Z,25.37
2018-02-20T03:41:11.730Z,26.77
2018-02-20T03:43:39.940Z,25.03
2018-02-20T03:46:07.416Z,26.37
2018-02-20T03:48:34.869Z,26.17
2018-02-20T03:51:02.345Z,24.63
2018-02-20T03:53:29.823Z,25.80
2018-02-20T03:55:57.279Z,27.23
2018-02-20T03:58:24.766Z,25.77
2018-02-20T04:00:52.245Z,24.77
2018-02-20T04:03:19.680Z,25.57
2018-02-20T04:05:47.138Z,27.10
2018-02-20T04:08:14.587Z,25.33
2018-02-20T04:10:42.028Z,26.60
2018-02-20T04:13:09.471Z,26.70
2018-02-20T04:15:37.686Z,25.87
2018-02-20T04:18:05.165Z,27.67
2018-02-20T04:20:33.133Z,27.57
2018-02-20T04:23:00.578Z,24.53
2018-02-20T04:25:28.036Z,25.23
2018-02-20T04:27:55.467Z,25.00
2018-02-20T04:30:23.680Z,28.57
2018-02-20T04:32:51.131Z,28.90
2018-02-20T04:35:18.553Z,27.37
2018-02-20T04:37:46.002Z,26.63
2018-02-20T04:40:13.466Z,26.53
2018-02-20T04:42:40.918Z,25.37
2018-02-20T04:45:08.387Z,29.33
2018-02-20T04:47:35.830Z,27.27
2018-02-20T04:50:03.303Z,27.03
2018-02-20T04:52:30.775Z,24.23
2018-02-20T04:54:58.216Z,25.90
2018-02-20T04:57:25.668Z,26.90
2018-02-20T04:59:53.132Z,28.47
2018-02-20T05:02:20.570Z,27.43
2018-02-20T05:04:48.028Z,26.20
2018-02-20T05:07:16.272Z,26.83
2018-02-20T05:09:43.739Z,25.83
2018-02-20T05:12:11.190Z,27.13
2018-02-20T05:14:38.649Z,25.33
2018-02-20T05:17:06.115Z,27.20
2018-02-20T05:19:34.338Z,26.50
2018-02-20T05:22:02.557Z,25.83
2018-02-20T05:24:30.025Z,24.13
2018-02-20T05:26:57.468Z,23.60
2018-02-20T05:29:24.930Z,26.30
2018-02-20T05:31:52.377Z,27.13
2018-02-20T05:34:19.844Z,27.00
2018-02-20T05:36:47.287Z,27.90
2018-02-20T05:39:15.522Z,24.23
2018-02-20T05:41:42.968Z,25.33
2018-02-20T05:44:10.434Z,25.17
2018-02-20T05:46:37.886Z,22.63
2018-02-20T05:49:05.372Z,26.50
2018-02-20T05:51:32.815Z,25.83
2018-02-20T05:54:00.292Z,25.83
2018-02-20T05:56:27.728Z,25.13
2018-02-20T05:58:55.200Z,25.23
2018-02-20T06:01:22.654Z,28.03
2018-02-20T06:03:50.091Z,25.57
2018-02-20T06:06:18.338Z,25.57
2018-02-20T06:08:45.819Z,27.87
2018-02-20T06:11:13.240Z,25.27
2018-02-20T06:13:40.690Z,24.83
2018-02-20T06:16:08.144Z,26.97
2018-02-20T06:18:35.597Z,25.20
2018-02-20T06:21:03.838Z,25.30
2018-02-20T06:23:32.075Z,24.97
2018-02-20T06:25:59.539Z,25.03
2018-02-20T06:28:27.006Z,25.23
2018-02-20T06:30:54.450Z,25.30
2018-02-20T06:33:22.669Z,25.43
2018-02-20T06:35:50.123Z,24.97
2018-02-20T06:38:17.586Z,26.43
2018-02-20T06:40:45.033Z,25.10
2018-02-20T06:43:12.482Z,24.90
2018-02-20T06:45:39.975Z,25.50
2018-02-20T06:48:07.435Z,24.00
2018-02-20T06:50:34.905Z,24.77
2018-02-20T06:53:02.387Z,25.00
2018-02-20T06:55:29.852Z,25.97
2018-02-20T06:57:57.307Z,25.50
2018-02-20T07:00:25.595Z,25.40
2018-02-20T07:02:53.039Z,25.67
2018-02-20T07:05:20.520Z,26.27
2018-02-20T07:07:47.973Z,27.37
2018-02-20T07:10:16.249Z,27.03
2018-02-20T07:12:43.713Z,26.20
2018-02-20T07:15:11.157Z,26.10
2018-02-20T07:17:38.629Z,27.67
2018-02-20T07:20:06.107Z,25.53
2018-02-20T07:22:33.558Z,25.27
2018-02-20T07:25:01.011Z,25.80
2018-02-20T07:27:28.468Z,26.97
2018-02-20T07:29:55.910Z,25.40
2018-02-20T07:32:23.378Z,26.20
2018-02-20T07:34:50.837Z,26.43
2018-02-20T07:37:19.250Z,24.93
2018-02-20T07:39:46.728Z,26.63
2018-02-20T07:42:14.183Z,29.90
2018-02-20T07:44:41.653Z,29.63
2018-02-20T07:47:09.878Z,28.23
2018-02-20T07:49:38.119Z,29.30
2018-02-20T07:52:05.588Z,28.40
2018-02-20T07:54:33.038Z,31.90
2018-02-20T07:57:01.279Z,32.33
2018-02-20T07:59:28.739Z,41.00
2018-02-20T08:01:56.213Z,34.10
2018-02-20T08:04:23.660Z,33.67
2018-02-20T08:06:51.885Z,34.53
2018-02-20T08:09:19.330Z,33.37
2018-02-20T08:11:46.804Z,33.73
2018-02-20T08:14:14.254Z,34.57
2018-02-20T08:16:41.719Z,37.13
2018-02-20T08:19:09.157Z,33.77
2018-02-20T08:21:36.674Z,37.53
2018-02-20T08:24:04.131Z,35.67
2018-02-20T08:26:31.590Z,35.17
2018-02-20T08:28:59.051Z,35.50
2018-02-20T08:31:27.257Z,30.83
2018-02-20T08:33:54.727Z,35.70
2018-02-20T08:36:22.188Z,37.27
2018-02-20T08:38:49.726Z,36.13
2018-02-20T08:41:17.176Z,35.27
2018-02-20T08:43:44.625Z,39.63
2018-02-20T08:46:12.081Z,38.47
2018-02-20T08:48:39.547Z,40.37
2018-02-20T08:51:06.984Z,39.73
2018-02-20T08:53:35.204Z,38.67
2018-02-20T08:56:02.652Z,38.83
2018-02-20T08:58:30.094Z,34.13
2018-02-20T09:00:57.552Z,37.93
2018-02-20T09:03:25.046Z,43.27
2018-02-20T09:05:52.486Z,37.00
2018-02-20T09:08:20.011Z,43.77
2018-02-20T09:10:47.471Z,35.77
2018-02-20T09:13:14.922Z,40.97
2018-02-20T09:15:42.365Z,45.47
2018-02-20T09:18:09.835Z,40.50
2018-02-20T09:20:37.297Z,45.10
2018-02-20T09:23:04.739Z,41.10
2018-02-20T09:25:32.201Z,38.67
2018-02-20T09:27:59.653Z,41.63
2018-02-20T09:30:27.123Z,44.90
2018-02-20T09:32:54.589Z,41.33
2018-02-20T09:35:22.086Z,41.90
2018-02-20T09:37:49.539Z,38.47
2018-02-20T09:40:17.013Z,41.47
2018-02-20T09:42:44.451Z,40.27
2018-02-20T09:45:11.924Z,37.57
2018-02-20T09:47:39.363Z,39.37
2018-02-20T09:50:06.838Z,38.93
2018-02-20T09:52:34.317Z,38.00
2018-02-20T09:55:01.781Z,35.80
2018-02-20T09:57:30.107Z,36.03
2018-02-20T09:59:57.562Z,36.07
2018-02-20T10:02:25.779Z,37.27
2018-02-20T10:04:53.249Z,35.53
2018-02-20T10:07:20.703Z,37.77
2018-02-20T10:09:48.216Z,37.40
2018-02-20T10:12:15.683Z,35.90
2018-02-20T10:14:43.151Z,37.73
2018-02-20T10:17:10.608Z,32.50
2018-02-20T10:19:38.063Z,37.10
2018-02-20T10:22:05.523Z,35.43
2018-02-20T10:24:32.990Z,36.47
2018-02-20T10:27:00.432Z,34.70
2018-02-20T10:29:27.917Z,33.93
2018-02-20T10:31:55.366Z,34.50
2018-02-20T10:34:22.827Z,33.07
2018-02-20T10:36:51.063Z,32.00
2018-02-20T10:39:18.506Z,30.60
2018-02-20T10:41:46.764Z,27.97
2018-02-20T10:44:14.275Z,28.63
2018-02-20T10:46:41.750Z,26.33
2018-02-20T10:49:09.231Z,25.27
2018-02-20T10:51:36.683Z,24.30
2018-02-20T10:54:04.146Z,23.83
2018-02-20T10:56:31.588Z,23.50
2018-02-20T10:58:59.057Z,24.90
2018-02-20T11:01:26.522Z,25.03
2018-02-20T11:03:53.978Z,25.70
2018-02-20T11:06:21.432Z,25.13
2018-02-20T11:08:48.892Z,25.60
2018-02-20T11:11:17.128Z,24.93
2018-02-20T11:13:44.596Z,23.23
2018-02-20T11:16:12.334Z,26.60
2018-02-20T11:18:39.792Z,25.83
2018-02-20T11:21:07.283Z,25.93
2018-02-20T11:23:34.754Z,26.53
2018-02-20T11:26:02.199Z,25.40
2018-02-20T11:28:29.638Z,24.90
2018-02-20T11:30:57.143Z,25.97
2018-02-20T11:33:24.544Z,25.30
2018-02-20T11:35:52.002Z,23.83
2018-02-20T11:38:20.215Z,25.13
2018-02-20T11:40:48.445Z,26.63
2018-02-20T11:43:15.896Z,26.10
2018-02-20T11:45:43.356Z,24.53
2018-02-20T11:48:10.827Z,25.50
2018-02-20T11:50:38.286Z,25.00
2018-02-20T11:53:05.739Z,26.07
2018-02-20T11:55:33.192Z,26.37
2018-02-20T11:58:00.645Z,24.90
2018-02-20T12:00:28.097Z,27.30
2018-02-20T12:02:55.560Z,27.93
2018-02-20T12:05:23.014Z,27.13
2018-02-20T12:07:50.471Z,25.93
2018-02-20T12:10:17.908Z,27.00
2018-02-20T12:12:46.132Z,26.50
2018-02-20T12:15:13.589Z,27.70
2018-02-20T12:17:41.801Z,26.70
2018-02-20T12:20:09.242Z,28.07
2018-02-20T12:22:36.703Z,26.60
2018-02-20T12:25:04.162Z,26.30
2018-02-20T12:27:31.620Z,27.00
2018-02-20T12:29:59.092Z,26.23
2018-02-20T12:32:26.596Z,27.30
2018-02-20T12:34:54.009Z,26.53
2018-02-20T12:37:21.478Z,27.33
2018-02-20T12:39:48.944Z,27.47
2018-02-20T12:42:16.399Z,27.10
2018-02-20T12:44:43.857Z,27.07
2018-02-20T12:47:11.307Z,27.90
2018-02-20T12:49:38.776Z,27.23
2018-02-20T12:52:06.237Z,27.03
2018-02-20T12:54:33.701Z,26.43
2018-02-20T12:57:01.153Z,26.90
2018-02-20T12:59:28.621Z,23.97
2018-02-20T13:01:56.088Z,25.03
2018-02-20T13:04:23.546Z,27.90
2018-02-20T13:06:51.014Z,25.07
2018-02-20T13:09:18.471Z,27.33
2018-02-20T13:11:45.910Z,29.03
2018-02-20T13:14:14.161Z,27.77
2018-02-20T13:16:41.611Z,27.23
2018-02-20T13:19:09.074Z,28.47
2018-02-20T13:21:36.562Z,27.77
2018-02-20T13:24:04.030Z,27.93
2018-02-20T13:26:31.490Z,29.43
2018-02-20T13:28:58.946Z,28.27
2018-02-20T13:31:26.434Z,27.60
2018-02-20T13:33:54.670Z,31.27
2018-02-20T13:36:22.131Z,29.93
2018-02-20T13:38:49.576Z,32.00
2018-02-20T13:41:17.022Z,32.13
2018-02-20T13:43:44.481Z,31.77
2018-02-20T13:46:11.947Z,28.03
2018-02-20T13:48:39.411Z,33.57
2018-02-20T13:51:06.894Z,29.60
2018-02-20T13:53:34.363Z,31.87
2018-02-20T13:56:01.806Z,32.13
2018-02-20T13:58:29.270Z,31.27
2018-02-20T14:00:56.736Z,30.77
2018-02-20T14:03:24.191Z,32.37
2018-02-20T14:05:51.657Z,32.93
2018-02-20T14:08:19.128Z,31.47
2018-02-20T14:10:46.606Z,33.80
2018-02-20T14:13:14.044Z,33.03
2018-02-20T14:15:41.556Z,31.17
2018-02-20T14:18:09.003Z,32.40
2018-02-20T14:20:36.476Z,34.67
2018-02-20T14:23:03.923Z,34.97
2018-02-20T14:25:31.441Z,33.33
2018-02-20T14:27:58.872Z,34.00
2018-02-20T14:30:26.314Z,32.60
2018-02-20T14:32:53.780Z,32.87
2018-02-20T14:35:21.241Z,33.53
2018-02-20T14:37:48.700Z,32.13
2018-02-20T14:40:16.173Z,34.67
2018-02-20T14:42:43.638Z,34.70
2018-02-20T14:45:11.096Z,35.33
2018-02-20T14:47:38.570Z,35.00
2018-02-20T14:50:06.060Z,33.17
2018-02-20T14:52:34.289Z,32.27
2018-02-20T14:55:01.727Z,34.67
2018-02-20T14:57:29.199Z,35.00
2018-02-20T14:59:56.644Z,34.70
2018-02-20T15:02:24.090Z,32.83
2018-02-20T15:04:52.335Z,35.87
2018-02-20T15:07:19.773Z,38.90
2018-02-20T15:09:47.241Z,38.40
2018-02-20T15:12:14.678Z,35.80
2018-02-20T15:14:42.155Z,35.33
2018-02-20T15:17:09.586Z,38.47
2018-02-20T15:19:37.818Z,35.53
2018-02-20T15:22:05.269Z,35.97
2018-02-20T15:24:32.717Z,37.33
2018-02-20T15:27:00.177Z,36.93
2018-02-20T15:29:27.638Z,38.07
2018-02-20T15:31:55.109Z,36.50
2018-02-20T15:34:22.582Z,36.93
2018-02-20T15:36:50.029Z,38.30
2018-02-20T15:39:17.496Z,38.87
2018-02-20T15:41:44.961Z,37.33
2018-02-20T15:44:12.411Z,37.83
2018-02-20T15:46:39.914Z,40.43
2018-02-20T15:49:07.400Z,39.50
2018-02-20T15:51:34.881Z,38.30
2018-02-20T15:54:03.095Z,40.90
2018-02-20T15:56:30.543Z,40.47
2018-02-20T15:58:58.018Z,40.60
2018-02-20T16:01:25.473Z,37.70
2018-02-20T16:03:52.973Z,39.63
2018-02-20T16:06:20.447Z,40.83
2018-02-20T16:08:47.894Z,41.73
2018-02-20T16:11:15.343Z,39.03
2018-02-20T16:13:42.815Z,40.07
2018-02-20T16:16:11.066Z,40.60
2018-02-20T16:18:38.530Z,40.93
2018-02-20T16:21:06.002Z,41.03
2018-02-20T16:23:33.462Z,41.70
2018-02-20T16:26:00.929Z,39.63
2018-02-20T16:28:28.393Z,39.80
2018-02-20T16:30:55.869Z,40.97
2018-02-20T16:33:23.327Z,38.20
2018-02-20T16:35:50.817Z,40.33
2018-02-20T16:38:18.256Z,40.20
2018-02-20T16:40:45.748Z,40.70
2018-02-20T16:43:13.207Z,41.40
2018-02-20T16:45:40.653Z,40.03
2018-02-20T16:48:08.130Z,43.13
2018-02-20T16:50:35.613Z,39.77
2018-02-20T16:53:03.078Z,40.00
2018-02-20T16:55:31.304Z,41.90
2018-02-20T16:57:59.475Z,39.77
2018-02-20T17:00:26.941Z,41.20
2018-02-20T17:02:54.660Z,39.97
2018-02-20T17:05:22.127Z,40.57
2018-02-20T17:07:50.355Z,42.67
2018-02-20T17:10:17.811Z,40.87
2018-02-20T17:12:45.272Z,39.17
2018-02-20T17:15:12.728Z,40.90
2018-02-20T17:17:40.198Z,39.70
2018-02-20T17:20:07.667Z,39.30
2018-02-20T17:22:35.143Z,40.47
2018-02-20T17:25:02.608Z,40.23
2018-02-20T17:27:30.074Z,37.60
2018-02-20T17:29:57.530Z,40.10
2018-02-20T17:32:24.985Z,38.40
2018-02-20T17:34:52.448Z,40.77
2018-02-20T17:37:19.911Z,39.40
2018-02-20T17:39:47.346Z,37.87
2018-02-20T17:42:14.828Z,40.83
2018-02-20T17:44:42.324Z,38.57
2018-02-20T17:47:09.745Z,36.90
2018-02-20T17:49:37.219Z,38.10
2018-02-20T17:52:04.656Z,38.50
2018-02-20T17:54:33.193Z,39.13
2018-02-20T17:57:00.633Z,35.93
2018-02-20T17:59:28.085Z,38.93
2018-02-20T18:01:55.539Z,39.30
2018-02-20T18:04:23.011Z,37.30
2018-02-20T18:06:50.496Z,38.10
2018-02-20T18:09:17.971Z,38.53
2018-02-20T18:11:45.425Z,37.97
2018-02-20T18:14:12.941Z,37.17
2018-02-20T18:16:40.350Z,36.47
2018-02-20T18:19:07.808Z,39.67
2018-02-20T18:21:35.288Z,39.27
2018-02-20T18:24:02.728Z,37.93
2018-02-20T18:26:30.176Z,40.00
2018-02-20T18:28:57.647Z,37.93
2018-02-20T18:31:25.129Z,37.97
2018-02-20T18:33:52.636Z,37.93
2018-02-20T18:36:20.923Z,39.30
2018-02-20T18:38:49.128Z,36.83
2018-02-20T18:41:16.595Z,36.80
2018-02-20T18:43:44.072Z,38.50
2018-02-20T18:46:11.536Z,37.03
2018-02-20T18:48:39.833Z,37.03
2018-02-20T18:51:07.290Z,36.43
2018-02-20T18:53:34.764Z,36.50
2018-02-20T18:56:02.236Z,38.03
2018-02-20T18:58:29.692Z,35.53
2018-02-20T19:00:57.165Z,36.40
2018-02-20T19:03:24.617Z,35.07
2018-02-20T19:05:52.064Z,33.90
2018-02-20T19:08:19.586Z,34.33
2018-02-20T19:10:47.015Z,36.67
2018-02-20T19:13:14.492Z,35.63
2018-02-20T19:15:42.701Z,34.43
2018-02-20T19:18:10.142Z,35.03
2018-02-20T19:20:38.384Z,36.20
2018-02-20T19:23:06.609Z,35.83
2018-02-20T19:25:34.072Z,35.67
2018-02-20T19:28:01.524Z,35.27
2018-02-20T19:30:29.756Z,34.07
2018-02-20T19:32:57.235Z,34.17
2018-02-20T19:35:24.698Z,35.27
2018-02-20T19:37:52.156Z,34.43
2018-02-20T19:40:19.670Z,33.60
2018-02-20T19:42:47.900Z,33.67
2018-02-20T19:45:15.351Z,33.77
2018-02-20T19:47:42.803Z,33.80
2018-02-20T19:50:10.255Z,32.83
2018-02-20T19:52:37.705Z,33.67
2018-02-20T19:55:05.181Z,35.10
2018-02-20T19:57:32.650Z,33.10
2018-02-20T20:00:00.120Z,33.83
2018-02-20T20:02:27.571Z,34.17
2018-02-20T20:04:55.037Z,34.33
2018-02-20T20:07:22.494Z,33.83
2018-02-20T20:09:49.955Z,33.57
2018-02-20T20:12:17.416Z,33.53
2018-02-20T20:14:44.935Z,34.73
2018-02-20T20:17:12.392Z,33.87
2018-02-20T20:19:39.858Z,34.17
2018-02-20T20:22:07.313Z,33.10
2018-02-20T20:24:34.796Z,34.00
2018-02-20T20:27:02.206Z,35.40
2018-02-20T20:29:29.675Z,34.67
2018-02-20T20:31:57.227Z,34.30
2018-02-20T20:34:24.687Z,33.80
2018-02-20T20:36:52.149Z,33.77
2018-02-20T20:39:19.623Z,34.03
2018-02-20T20:41:47.085Z,33.50
2018-02-20T20:44:14.548Z,33.60
2018-02-20T20:46:42.025Z,33.33
2018-02-20T20:49:09.490Z,34.67
2018-02-20T20:51:36.940Z,32.80
2018-02-20T20:54:04.518Z,32.77
2018-02-20T20:56:31.952Z,33.57
2018-02-20T20:58:59.414Z,31.83
2018-02-20T21:01:26.913Z,34.10
2018-02-20T21:03:54.349Z,33.57
2018-02-20T21:06:21.802Z,31.90
2018-02-20T21:08:49.257Z,32.30
2018-02-20T21:11:16.730Z,34.77
2018-02-20T21:13:44.208Z,33.33
2018-02-20T21:16:11.667Z,33.73
2018-02-20T21:18:39.138Z,32.03
2018-02-20T21:21:06.596Z,31.40
2018-02-20T21:23:34.075Z,33.50
2018-02-20T21:26:01.535Z,33.50
2018-02-20T21:28:28.993Z,33.40
2018-02-20T21:30:56.473Z,31.90
2018-02-20T21:33:23.944Z,33.13
2018-02-20T21:35:51.430Z,33.30
2018-02-20T21:38:19.639Z,32.13
2018-02-20T21:40:47.115Z,32.60
2018-02-20T21:43:14.567Z,32.27
2018-02-20T21:45:42.232Z,32.77
2018-02-20T21:48:09.707Z,31.90
2018-02-20T21:50:37.182Z,33.13
2018-02-20T21:53:04.642Z,34.57
2018-02-20T21:55:32.083Z,33.03
2018-02-20T21:57:59.557Z,33.73
2018-02-20T22:00:27.046Z,34.00
2018-02-20T22:02:54.526Z,33.07
2018-02-20T22:05:22.010Z,34.93
2018-02-20T22:07:50.237Z,35.73
2018-02-20T22:10:17.700Z,35.20
2018-02-20T22:12:45.160Z,33.13
2018-02-20T22:15:12.643Z,32.93
2018-02-20T22:17:40.082Z,33.40
2018-02-20T22:20:07.550Z,36.13
2018-02-20T22:22:35.029Z,35.93
2018-02-20T22:25:02.508Z,34.20
2018-02-20T22:27:29.964Z,35.67
2018-02-20T22:29:57.420Z,34.13
2018-02-20T22:32:24.880Z,35.17
2018-02-20T22:34:52.336Z,35.87
2018-02-20T22:37:19.804Z,35.10
2018-02-20T22:39:47.247Z,34.77
2018-02-20T22:42:14.714Z,33.20
2018-02-20T22:44:42.171Z,34.50
2018-02-20T22:47:09.675Z,35.57
2018-02-20T22:49:37.134Z,35.13
2018-02-20T22:52:04.594Z,34.17
2018-02-20T22:54:32.052Z,33.77
2018-02-20T22:56:59.562Z,34.97
2018-02-20T22:59:27.027Z,35.77
2018-02-20T23:01:54.478Z,36.60
2018-02-20T23:04:22.716Z,36.53
2018-02-20T23:06:50.260Z,35.70
2018-02-20T23:09:17.725Z,35.40
2018-02-20T23:11:47.970Z,35.17
2018-02-20T23:14:15.465Z,33.63
2018-02-20T23:16:42.960Z,36.33
2018-02-20T23:19:10.434Z,35.53
2018-02-20T23:21:37.907Z,35.03
2018-02-20T23:24:05.364Z,35.63
2018-02-20T23:26:33.740Z,37.40
2018-02-20T23:29:01.215Z,36.20
2018-02-20T23:31:28.678Z,35.23
2018-02-20T23:33:56.126Z,37.07
2018-02-20T23:36:23.579Z,34.67
2018-02-20T23:38:51.038Z,35.83
2018-02-20T23:41:18.497Z,36.30
2018-02-20T23:43:45.938Z,36.70
2018-02-20T23:46:14.168Z,32.93
2018-02-20T23:48:41.627Z,36.37
2018-02-20T23:51:14.881Z,36.83
2018-02-20T23:53:43.116Z,37.30
2018-02-20T23:56:10.584Z,36.30
2018-02-20T23:58:38.056Z,37.40
